Time;durP1;ratioP1;P1;durP2;ratioP2;P2;SDS_P1;SDS_P2;PMS_P1;PMS_P2;Temp;Humidity;BMP_temperature;BMP_pressure;BME280_temperature;BME280_humidity;BME280_pressure;Samples;Min_cycle;Max_cycle;Signal;HPM_P1;HPM_P2
2022/02/07 00:00:14;;;;;;;4.65;2.88;;;11.10;99.90;;;;;;5033206;28;20079;-72
2022/02/07 00:05:30;;;;;;;0.85;0.77;;;11.00;99.90;;;;;;5032810;28;20040;-72
2022/02/07 00:07:56;;;;;;;0.00;0.00;;;11.00;99.90;;;;;;5022804;28;20026;-73
2022/02/07 00:10:23;;;;;;;1.33;1.23;;;10.90;99.90;;;;;;5013205;28;20030;-72
2022/02/07 00:12:49;;;;;;;1.08;0.70;;;10.90;99.90;;;;;;5013464;28;20489;-72
2022/02/07 00:15:17;;;;;;;3.47;1.08;;;10.90;99.90;;;;;;5013634;28;20026;-72
2022/02/07 00:17:44;;;;;;;0.00;0.00;;;10.90;99.90;;;;;;5044942;28;20054;-72
2022/02/07 00:20:15;;;;;;;0.28;0.28;;;10.90;99.90;;;;;;5013404;28;20030;-72
2022/02/07 00:22:41;;;;;;;1.85;0.80;;;10.80;99.90;;;;;;5013078;28;20033;-75
2022/02/07 00:25:07;;;;;;;12.50;3.17;;;10.80;99.90;;;;;;5012939;28;20077;-72
2022/02/07 00:27:34;;;;;;;0.35;0.35;;;10.90;99.90;;;;;;5012619;28;20029;-72
2022/02/07 00:30:00;;;;;;;0.40;0.40;;;10.90;99.90;;;;;;5012804;28;20034;-74
2022/02/07 00:32:25;;;;;;;0.00;0.00;;;10.90;99.90;;;;;;5012777;28;20033;-76
2022/02/07 00:34:51;;;;;;;0.00;0.00;;;10.90;99.90;;;;;;5013163;28;20022;-74
2022/02/07 00:37:16;;;;;;;1.77;1.67;;;10.90;99.90;;;;;;5024013;28;20485;-72
2022/02/07 00:39:51;;;;;;;0.25;0.25;;;10.90;99.90;;;;;;5032186;28;20022;-73
2022/02/07 00:42:29;;;;;;;1.50;1.40;;;10.80;99.90;;;;;;5032744;28;20037;-72
2022/02/07 00:45:02;;;;;;;0.00;0.00;;;10.80;99.90;;;;;;5033029;28;20030;-75
2022/02/07 00:47:28;;;;;;;4.90;1.13;;;10.80;99.90;;;;;;5031903;28;20083;-75
2022/02/07 00:49:55;;;;;;;0.30;0.30;;;10.80;99.90;;;;;;5032384;28;20536;-73
2022/02/07 00:52:23;;;;;;;0.68;0.68;;;10.80;99.90;;;;;;5032958;28;20485;-73
2022/02/07 00:54:49;;;;;;;0.00;0.00;;;10.80;99.90;;;;;;5033034;28;20013;-73
2022/02/07 00:57:15;;;;;;;3.83;2.17;;;10.80;99.90;;;;;;5031995;28;20404;-72
2022/02/07 00:59:41;;;;;;;2.45;1.65;;;10.70;99.90;;;;;;5032096;28;20037;-72
2022/02/07 01:02:06;;;;;;;2.38;1.88;;;10.70;99.90;;;;;;5032848;28;20044;-73
2022/02/07 01:04:32;;;;;;;8.18;2.05;;;10.70;99.90;;;;;;5036542;28;20044;-72
2022/02/07 01:06:58;;;;;;;6.50;2.45;;;10.70;99.90;;;;;;5037071;28;20044;-73
2022/02/07 01:09:29;;;;;;;0.65;0.65;;;10.80;99.90;;;;;;5035877;28;20032;-73
2022/02/07 01:12:09;;;;;;;14.57;2.45;;;10.80;99.90;;;;;;5035880;28;20424;-72
2022/02/07 01:17:55;;;;;;;0.03;0.03;;;10.70;99.90;;;;;;5035663;28;20022;-73
2022/02/07 01:54:59;;;;;;;3.13;1.27;;;10.50;99.90;;;;;;5035317;28;20083;-73
2022/02/07 01:57:26;;;;;;;0.20;0.20;;;10.50;99.90;;;;;;5036028;28;20045;-74
2022/02/07 01:59:51;;;;;;;0.00;0.00;;;10.50;99.90;;;;;;5035119;28;20037;-75
2022/02/07 02:02:17;;;;;;;1.65;1.10;;;10.50;99.90;;;;;;5035312;28;20401;-74
2022/02/07 02:04:43;;;;;;;11.75;2.63;;;10.50;99.90;;;;;;5035740;28;20022;-73
2022/02/07 02:07:09;;;;;;;0.28;0.28;;;10.50;99.90;;;;;;5035718;28;20040;-76
2022/02/07 02:09:35;;;;;;;4.85;1.73;;;10.50;99.90;;;;;;5034847;28;20493;-75
2022/02/07 02:12:03;;;;;;;1.05;0.95;;;10.40;99.90;;;;;;5035408;28;20083;-73
2022/02/07 02:14:41;;;;;;;7.78;1.35;;;10.50;99.90;;;;;;5034919;28;20033;-75
2022/02/07 02:17:25;;;;;;;0.05;0.05;;;10.50;99.90;;;;;;5034795;28;20014;-73
2022/02/07 02:46:34;;;;;;;0.25;0.25;;;10.20;99.90;;;;;;5014754;28;20060;-73
2022/02/07 02:49:02;;;;;;;11.70;1.33;;;10.20;99.90;;;;;;5033586;28;20515;-74
2022/02/07 02:51:29;;;;;;;2.28;1.02;;;10.30;99.90;;;;;;5034481;28;20034;-73
2022/02/07 02:53:55;;;;;;;8.10;1.80;;;10.30;99.90;;;;;;5034243;28;20758;-73
2022/02/07 02:56:21;;;;;;;1.55;1.00;;;10.20;99.90;;;;;;5034866;28;20026;-76
2022/02/07 02:58:47;;;;;;;0.10;0.10;;;10.30;99.90;;;;;;5034244;28;20021;-75
2022/02/07 03:01:12;;;;;;;2.25;0.57;;;10.20;99.90;;;;;;5033756;28;20025;-75
2022/02/07 03:03:38;;;;;;;0.25;0.25;;;10.20;99.90;;;;;;5034637;28;20076;-75
2022/02/07 03:06:04;;;;;;;5.93;1.60;;;10.20;99.90;;;;;;5033658;28;20068;-74
2022/02/07 03:08:30;;;;;;;6.22;1.50;;;10.20;99.90;;;;;;5023510;28;20109;-72
2022/02/07 03:11:10;;;;;;;6.63;2.20;;;10.20;99.90;;;;;;5015242;28;20447;-72
2022/02/07 03:13:59;;;;;;;0.00;0.00;;;10.20;99.90;;;;;;5014421;28;20374;-72
2022/02/07 03:16:38;;;;;;;0.10;0.10;;;10.20;99.90;;;;;;5014055;28;20034;-75
2022/02/07 03:19:12;;;;;;;0.38;0.38;;;10.20;99.90;;;;;;5029104;28;20033;-74
2022/02/07 03:21:39;;;;;;;14.23;2.45;;;10.20;99.90;;;;;;5014288;28;20029;-75
2022/02/07 03:24:06;;;;;;;5.43;1.42;;;10.20;99.90;;;;;;5013793;28;20064;-72
2022/02/07 03:26:44;;;;;;;1.13;1.05;;;10.20;99.90;;;;;;5013722;28;20073;-74
2022/02/07 03:29:11;;;;;;;0.93;0.85;;;10.20;99.90;;;;;;5014183;28;20034;-72
2022/02/07 03:31:37;;;;;;;0.43;0.43;;;10.20;99.90;;;;;;5013913;28;20030;-72
2022/02/07 03:34:03;;;;;;;0.75;0.52;;;10.20;99.90;;;;;;5014888;28;20018;-74
2022/02/07 03:36:31;;;;;;;0.00;0.00;;;10.20;99.90;;;;;;5016925;28;20029;-72
2022/02/07 03:38:57;;;;;;;0.85;0.85;;;10.30;99.90;;;;;;5033311;28;20029;-72
2022/02/07 03:41:23;;;;;;;0.00;0.00;;;10.30;99.90;;;;;;5033686;28;20032;-75
2022/02/07 03:43:50;;;;;;;0.82;0.80;;;10.40;99.90;;;;;;5033664;28;20034;-73
2022/02/07 03:46:15;;;;;;;3.05;1.77;;;10.50;99.90;;;;;;5032412;28;20074;-72
2022/02/07 03:48:41;;;;;;;0.00;0.00;;;10.50;99.90;;;;;;5032454;28;20033;-75
2022/02/07 03:51:07;;;;;;;0.00;0.00;;;10.50;99.90;;;;;;5033199;28;20033;-73
2022/02/07 03:53:32;;;;;;;0.98;0.85;;;10.60;99.90;;;;;;5032449;28;20022;-73
2022/02/07 03:55:58;;;;;;;0.30;0.30;;;10.60;99.90;;;;;;5033378;28;20028;-73
2022/02/07 03:58:24;;;;;;;0.45;0.40;;;10.50;99.90;;;;;;5033253;28;20100;-73
2022/02/07 04:00:51;;;;;;;0.00;0.00;;;10.50;99.90;;;;;;5033516;28;20029;-73
2022/02/07 04:03:20;;;;;;;0.08;0.08;;;10.50;99.90;;;;;;5033255;28;20029;-73
2022/02/07 04:05:54;;;;;;;2.80;1.10;;;10.50;99.90;;;;;;5033169;28;20036;-75
2022/02/07 04:08:22;;;;;;;1.60;1.45;;;10.50;99.90;;;;;;5032683;28;20436;-73
2022/02/07 04:13:17;;;;;;;1.40;1.30;;;10.50;99.90;;;;;;5032695;28;20036;-73
2022/02/07 04:15:43;;;;;;;0.10;0.10;;;10.50;99.90;;;;;;5032334;28;20100;-73
2022/02/07 04:18:13;;;;;;;1.02;0.08;;;10.40;99.90;;;;;;5032086;28;20549;-75
2022/02/07 04:20:39;;;;;;;1.95;0.95;;;10.40;99.90;;;;;;5033291;28;20057;-75
2022/02/07 04:23:05;;;;;;;0.85;0.47;;;10.40;99.90;;;;;;5032973;28;20060;-72
2022/02/07 04:25:30;;;;;;;1.60;1.15;;;10.40;99.90;;;;;;5032453;28;20128;-73
2022/02/07 04:27:56;;;;;;;1.15;0.80;;;10.40;99.90;;;;;;5033194;28;20032;-73
2022/02/07 04:30:21;;;;;;;1.98;1.25;;;10.50;99.90;;;;;;5033313;28;20039;-73
2022/02/07 04:32:47;;;;;;;7.13;1.55;;;10.50;99.90;;;;;;5033220;28;20068;-75
2022/02/07 04:35:13;;;;;;;0.00;0.00;;;10.50;99.90;;;;;;5032926;28;20025;-72
2022/02/07 04:37:39;;;;;;;0.08;0.03;;;10.50;99.90;;;;;;5033723;28;20021;-75
2022/02/07 04:40:05;;;;;;;2.00;0.75;;;10.50;99.90;;;;;;5037051;28;20033;-73
2022/02/07 04:42:31;;;;;;;0.17;0.17;;;10.50;99.90;;;;;;5036890;28;20492;-73
2022/02/07 04:55:09;;;;;;;0.00;0.00;;;10.40;99.90;;;;;;5036711;28;20032;-72
2022/02/07 05:00:51;;;;;;;0.08;0.08;;;10.20;99.90;;;;;;5036402;28;20480;-73
2022/02/07 05:16:04;;;;;;;1.02;0.80;;;9.90;99.90;;;;;;5036171;28;20064;-73
2022/02/07 05:18:31;;;;;;;0.32;0.32;;;9.90;99.90;;;;;;5035869;28;20044;-72
2022/02/07 05:20:57;;;;;;;0.05;0.05;;;9.90;99.90;;;;;;5035758;28;20475;-72
2022/02/07 05:23:24;;;;;;;0.70;0.68;;;9.80;99.90;;;;;;5036057;28;20026;-73
2022/02/07 05:25:50;;;;;;;0.63;0.63;;;9.80;99.90;;;;;;5035911;28;20125;-72
2022/02/07 05:28:16;;;;;;;4.47;1.40;;;9.70;99.90;;;;;;5036182;28;20025;-72
2022/02/07 05:30:42;;;;;;;0.47;0.47;;;9.70;99.90;;;;;;5035761;28;20033;-72
2022/02/07 05:33:08;;;;;;;0.25;0.22;;;9.70;99.90;;;;;;5035845;28;20049;-72
2022/02/07 05:35:34;;;;;;;0.03;0.03;;;9.60;99.90;;;;;;5036173;28;20018;-75
2022/02/07 05:38:00;;;;;;;1.65;0.93;;;9.60;99.90;;;;;;5034864;28;20025;-72
2022/02/07 05:43:24;;;;;;;0.22;0.22;;;9.60;99.90;;;;;;5034805;28;20097;-72
2022/02/07 05:45:49;;;;;;;1.20;0.82;;;9.60;99.90;;;;;;5035798;28;20025;-72
2022/02/07 05:48:15;;;;;;;10.95;3.20;;;9.50;99.90;;;;;;5034462;28;20036;-72
2022/02/07 05:50:41;;;;;;;3.92;1.50;;;9.50;99.90;;;;;;5035036;28;20393;-72
2022/02/07 05:53:07;;;;;;;0.05;0.05;;;9.40;99.90;;;;;;5035272;28;20030;-75
2022/02/07 05:55:35;;;;;;;3.40;1.75;;;9.40;99.90;;;;;;5034879;28;20026;-75
2022/02/07 05:58:01;;;;;;;5.35;2.70;;;9.40;99.90;;;;;;5034082;28;20032;-73
2022/02/07 06:00:32;;;;;;;0.47;0.47;;;9.40;99.90;;;;;;5033815;28;20104;-73
2022/02/07 06:03:01;;;;;;;0.15;0.15;;;9.40;99.90;;;;;;5036002;28;20053;-72
2022/02/07 06:05:27;;;;;;;0.98;0.75;;;9.40;99.90;;;;;;5035437;28;20524;-75
2022/02/07 06:07:56;;;;;;;2.03;1.15;;;9.40;99.90;;;;;;5033168;28;20387;-73
2022/02/07 06:10:22;;;;;;;1.80;1.10;;;9.40;99.90;;;;;;5015823;28;20041;-73
2022/02/07 06:12:48;;;;;;;5.00;2.47;;;9.40;99.90;;;;;;5015617;28;20477;-72
2022/02/07 06:15:15;;;;;;;0.00;0.00;;;9.40;99.90;;;;;;5015183;28;20025;-73
2022/02/07 06:17:42;;;;;;;0.25;0.20;;;9.50;99.90;;;;;;5014740;28;20427;-73
2022/02/07 06:20:09;;;;;;;1.02;0.40;;;9.50;99.90;;;;;;5033622;28;20025;-73
2022/02/07 06:22:34;;;;;;;2.72;1.67;;;9.50;99.90;;;;;;5034957;28;20108;-72
2022/02/07 06:25:02;;;;;;;0.43;0.43;;;9.60;99.90;;;;;;5034582;28;20132;-72
2022/02/07 06:27:28;;;;;;;2.17;1.98;;;9.60;99.90;;;;;;5022386;28;20034;-73
2022/02/07 06:29:53;;;;;;;9.43;0.52;;;9.60;99.90;;;;;;5030233;28;20483;-75
2022/02/07 06:32:19;;;;;;;0.10;0.10;;;9.70;99.90;;;;;;5015143;28;20029;-72
2022/02/07 06:34:45;;;;;;;0.15;0.15;;;9.60;99.90;;;;;;5014855;28;20054;-72
2022/02/07 06:37:11;;;;;;;0.65;0.55;;;9.60;99.90;;;;;;5031617;28;20063;-73
2022/02/07 06:39:36;;;;;;;0.00;0.00;;;9.60;99.90;;;;;;5034421;28;20021;-75
2022/02/07 06:42:02;;;;;;;0.00;0.00;;;9.50;99.90;;;;;;5033425;28;20026;-72
2022/02/07 06:44:28;;;;;;;0.00;0.00;;;9.40;99.90;;;;;;5033592;28;20033;-72
2022/02/07 06:46:54;;;;;;;0.08;0.05;;;9.40;99.90;;;;;;5033635;28;20024;-73
2022/02/07 06:49:20;;;;;;;0.38;0.38;;;9.30;99.90;;;;;;5033318;28;20488;-75
2022/02/07 06:51:46;;;;;;;0.47;0.47;;;9.30;99.90;;;;;;5033716;28;20028;-73
2022/02/07 06:54:12;;;;;;;0.75;0.75;;;9.30;99.90;;;;;;5033191;28;20064;-74
2022/02/07 06:56:39;;;;;;;0.03;0.03;;;9.30;99.90;;;;;;5033680;28;20056;-74
2022/02/07 06:59:05;;;;;;;0.98;0.47;;;9.20;99.90;;;;;;5033102;28;20022;-79
2022/02/07 07:01:31;;;;;;;10.63;1.25;;;9.20;99.90;;;;;;5045029;28;20434;-75
2022/02/07 07:03:56;;;;;;;0.00;0.00;;;9.20;99.90;;;;;;5038285;28;20468;-74
2022/02/07 07:06:25;;;;;;;0.30;0.30;;;9.20;99.90;;;;;;5049643;28;20021;-75
2022/02/07 07:08:54;;;;;;;0.88;0.88;;;9.20;99.90;;;;;;5037491;28;20480;-80
2022/02/07 07:11:23;;;;;;;0.90;0.75;;;9.20;99.90;;;;;;5037987;28;20032;-74
2022/02/07 07:14:04;;;;;;;0.10;0.10;;;9.20;99.90;;;;;;5034361;28;20033;-75
2022/02/07 07:18:59;;;;;;;0.00;0.00;;;9.20;99.90;;;;;;5027905;28;20021;-75
2022/02/07 07:21:26;;;;;;;0.43;0.43;;;9.30;99.90;;;;;;5030908;28;20033;-78
2022/02/07 07:23:53;;;;;;;0.00;0.00;;;9.30;99.90;;;;;;5039683;28;20159;-79
2022/02/07 07:26:20;;;;;;;1.40;1.08;;;9.30;99.90;;;;;;5032224;28;20049;-75
2022/02/07 07:28:47;;;;;;;0.43;0.43;;;9.30;99.90;;;;;;5035966;28;20032;-78
2022/02/07 07:31:16;;;;;;;3.72;0.98;;;9.30;99.90;;;;;;5029998;28;20017;-79
2022/02/07 07:33:45;;;;;;;0.17;0.17;;;9.30;99.90;;;;;;5038759;28;20373;-79
2022/02/07 07:36:10;;;;;;;1.35;1.10;;;9.20;99.90;;;;;;5046586;28;20028;-75
2022/02/07 07:38:37;;;;;;;0.10;0.10;;;9.10;99.90;;;;;;5046822;28;20025;-79
2022/02/07 07:41:02;;;;;;;0.30;0.30;;;9.00;99.90;;;;;;5024186;28;20469;-78
2022/02/07 07:43:28;;;;;;;0.00;0.00;;;8.90;99.90;;;;;;5023283;28;20033;-74
2022/02/07 07:46:03;;;;;;;21.77;0.80;;;8.90;99.90;;;;;;5030562;28;20025;-74
2022/02/07 07:48:30;;;;;;;0.10;0.10;;;8.90;99.90;;;;;;5034180;28;20029;-79
2022/02/07 08:03:53;;;;;;;0.28;0.28;;;9.20;99.90;;;;;;5029518;28;20044;-74
2022/02/07 08:06:26;;;;;;;0.00;0.00;;;9.40;99.90;;;;;;5033126;28;20021;-74
2022/02/07 08:11:30;;;;;;;0.00;0.00;;;9.60;99.90;;;;;;5033939;28;20124;-75
2022/02/07 08:13:58;;;;;;;0.00;0.00;;;9.60;99.90;;;;;;5027816;28;20022;-80
2022/02/07 08:16:23;;;;;;;0.25;0.25;;;9.70;99.90;;;;;;5024634;28;20107;-79
2022/02/07 08:18:49;;;;;;;0.00;0.00;;;9.70;99.90;;;;;;5040234;28;20022;-78
2022/02/07 08:21:15;;;;;;;0.20;0.15;;;9.80;99.90;;;;;;5029274;28;20112;-74
2022/02/07 08:23:41;;;;;;;0.25;0.25;;;9.80;99.90;;;;;;5028864;28;20473;-79
2022/02/07 08:26:08;;;;;;;0.45;0.35;;;9.90;99.90;;;;;;5029530;28;20081;-79
2022/02/07 08:28:34;;;;;;;0.55;0.52;;;9.90;99.90;;;;;;5026848;28;20116;-74
2022/02/07 08:30:59;;;;;;;0.90;0.85;;;10.00;99.90;;;;;;5029163;28;20425;-74
2022/02/07 08:33:25;;;;;;;0.10;0.10;;;10.00;99.90;;;;;;5038631;28;20454;-74
2022/02/07 08:35:51;;;;;;;0.00;0.00;;;10.10;99.90;;;;;;5029563;28;20029;-76
2022/02/07 08:38:19;;;;;;;0.57;0.57;;;10.10;99.90;;;;;;5026463;28;20070;-75
2022/02/07 08:40:48;;;;;;;0.15;0.15;;;10.10;99.90;;;;;;5027942;28;20478;-79
2022/02/07 08:43:15;;;;;;;0.93;0.60;;;10.10;99.90;;;;;;5024755;28;20088;-75
2022/02/07 08:45:40;;;;;;;0.63;0.63;;;10.20;99.90;;;;;;5027464;28;20033;-75
2022/02/07 08:48:07;;;;;;;0.15;0.15;;;10.20;99.90;;;;;;5027927;28;20030;-75
2022/02/07 08:50:33;;;;;;;0.00;0.00;;;10.40;99.90;;;;;;5026767;28;20026;-75
2022/02/07 08:53:01;;;;;;;0.43;0.35;;;10.70;99.90;;;;;;5025257;28;20120;-79
2022/02/07 08:55:34;;;;;;;0.82;0.80;;;11.00;99.90;;;;;;5026818;28;20499;-80
2022/02/07 08:58:02;;;;;;;0.00;0.00;;;11.10;99.90;;;;;;5031472;28;20064;-74
2022/02/07 09:11:04;;;;;;;0.15;0.15;;;11.40;99.90;;;;;;5025950;28;20052;-74
2022/02/07 09:13:32;;;;;;;1.75;0.52;;;11.40;99.90;;;;;;5039950;28;20029;-74
2022/02/07 09:16:05;;;;;;;0.40;0.35;;;11.30;99.90;;;;;;5026872;28;20041;-74
2022/02/07 09:18:31;;;;;;;;;;;11.20;99.90;;;;;;5023001;28;20124;-79
2022/02/07 09:20:59;;;;;;;0.63;0.63;;;11.20;99.90;;;;;;5030066;28;20103;-78
2022/02/07 09:23:27;;;;;;;2.40;1.45;;;11.10;99.90;;;;;;5040014;28;20029;-79
2022/02/07 09:25:53;;;;;;;1.23;1.13;;;11.10;99.90;;;;;;5032724;28;20060;-74
2022/02/07 09:28:19;;;;;;;0.00;0.00;;;11.10;99.90;;;;;;5035502;28;20022;-79
2022/02/07 09:30:46;;;;;;;0.25;0.25;;;11.20;99.90;;;;;;5033613;28;20435;-78
2022/02/07 09:33:11;;;;;;;0.22;0.20;;;11.30;99.90;;;;;;5032203;28;20013;-72
2022/02/07 09:35:37;;;;;;;8.50;0.38;;;11.30;99.90;;;;;;5044314;28;20503;-73
2022/02/07 09:38:03;;;;;;;0.10;0.10;;;11.50;99.90;;;;;;5033040;28;20540;-73
2022/02/07 09:40:30;;;;;;;0.35;0.35;;;11.80;99.90;;;;;;5026796;28;20029;-74
2022/02/07 09:42:58;;;;;;;0.00;0.00;;;12.20;99.90;;;;;;5038799;28;20377;-80
2022/02/07 09:45:31;;;;;;;2.35;0.43;;;12.70;99.90;;;;;;5035785;28;20035;-81
2022/02/07 09:47:59;;;;;;;1.75;1.65;;;12.90;99.90;;;;;;5033955;28;20034;-80
2022/02/07 09:50:25;;;;;;;0.00;0.00;;;13.10;99.90;;;;;;5048234;28;20029;-73
2022/02/07 09:52:51;;;;;;;0.00;0.00;;;13.20;99.90;;;;;;5034465;28;20549;-77
2022/02/07 09:55:16;;;;;;;0.00;0.00;;;13.20;99.90;;;;;;5043727;28;20352;-79
2022/02/07 09:57:42;;;;;;;0.38;0.17;;;13.20;99.90;;;;;;5038513;28;20057;-78
2022/02/07 10:00:17;;;;;;;0.45;0.38;;;13.20;99.90;;;;;;5031838;28;20045;-73
2022/02/07 10:02:48;;;;;;;0.65;0.60;;;13.20;99.90;;;;;;5027759;28;20053;-75
2022/02/07 10:05:26;;;;;;;0.00;0.00;;;13.30;99.90;;;;;;5043674;28;20481;-78
2022/02/07 10:08:02;;;;;;;0.15;0.15;;;13.40;99.90;;;;;;5036410;28;20079;-73
2022/02/07 10:13:42;;;;;;;0.00;0.00;;;13.50;99.90;;;;;;5023638;28;20459;-77
2022/02/07 10:19:22;;;;;;;0.00;0.00;;;13.20;99.90;;;;;;5023976;28;20024;-73
2022/02/07 10:41:27;;;;;;;0.30;0.30;;;13.20;99.90;;;;;;5031853;28;20025;-77
2022/02/07 10:44:01;;;;;;;0.20;0.20;;;13.40;99.90;;;;;;5032525;28;20156;-71
2022/02/07 10:46:32;;;;;;;0.30;0.22;;;13.70;99.90;;;;;;5018838;28;20034;-77
2022/02/07 10:48:58;;;;;;;0.00;0.00;;;13.80;99.90;;;;;;5037568;28;20056;-77
2022/02/07 10:51:31;;;;;;;0.90;0.52;;;13.70;99.90;;;;;;5037691;28;20067;-77
2022/02/07 10:53:58;;;;;;;0.10;0.10;;;13.80;99.90;;;;;;5027689;28;20385;-79
2022/02/07 10:56:35;;;;;;;0.00;0.00;;;14.00;99.90;;;;;;5046776;28;20084;-72
2022/02/07 10:59:06;;;;;;;1.02;0.88;;;14.00;99.90;;;;;;5041635;28;20104;-75
2022/02/07 11:04:28;;;;;;;1.75;0.80;;;13.80;99.90;;;;;;5049176;28;20043;-73
2022/02/07 11:06:59;;;;;;;0.00;0.00;;;13.80;99.90;;;;;;5037446;28;20024;-73
2022/02/07 11:09:39;;;;;;;0.55;0.55;;;13.90;99.90;;;;;;5043528;28;20029;-78
2022/02/07 11:20:28;;;;;;;0.00;0.00;;;14.30;99.90;;;;;;5034282;28;20390;-73
2022/02/07 11:26:29;;;;;;;0.80;0.47;;;14.40;99.90;;;;;;5030476;28;20516;-74
2022/02/07 11:28:40;;;;;;;0.35;0.22;;;14.30;99.90;;;;;;5025139;28;20037;-79
2022/02/07 11:31:08;;;;;;;0.00;0.00;;;14.40;99.90;;;;;;5024648;28;20051;-79
2022/02/07 11:36:31;;;;;;;0.00;0.00;;;14.30;99.90;;;;;;5017433;28;20107;-70
2022/02/07 11:39:01;;;;;;;0.15;0.15;;;14.40;99.90;;;;;;5024567;28;20024;-71
2022/02/07 11:41:27;;;;;;;0.28;0.28;;;14.60;99.90;;;;;;5017814;28;20132;-71
2022/02/07 11:43:54;;;;;;;0.85;0.47;;;14.70;99.90;;;;;;5028061;28;20712;-78
2022/02/07 11:46:21;;;;;;;13.35;2.17;;;14.80;99.90;;;;;;5028523;28;20056;-77
2022/02/07 11:48:50;;;;;;;0.25;0.25;;;14.70;99.90;;;;;;5029552;28;20410;-78
2022/02/07 11:51:29;;;;;;;1.48;0.35;;;14.60;99.90;;;;;;5020075;28;20060;-77
2022/02/07 11:54:06;;;;;;;0.00;0.00;;;14.50;99.90;;;;;;5028867;28;20022;-79
2022/02/07 11:59:16;;;;;;;0.55;0.10;;;14.50;99.90;;;;;;5010252;28;20210;-76
2022/02/07 12:01:59;;;;;;;0.00;0.00;;;14.60;99.90;;;;;;5018485;28;20025;-77
2022/02/07 12:04:33;;;;;;;0.00;0.00;;;14.70;99.90;;;;;;5030821;28;20029;-72
2022/02/07 12:07:11;;;;;;;0.15;0.15;;;14.50;99.90;;;;;;5033757;28;20028;-79
2022/02/07 12:09:38;;;;;;;0.17;0.10;;;14.20;99.90;;;;;;5027415;28;20017;-79
2022/02/07 12:12:05;;;;;;;0.00;0.00;;;14.20;99.90;;;;;;5022040;28;20037;-72
2022/02/07 12:14:38;;;;;;;0.52;0.52;;;14.00;99.90;;;;;;5039237;28;20495;-71
2022/02/07 12:17:04;;;;;;;2.17;1.08;;;14.00;99.90;;;;;;5028336;28;20029;-71
2022/02/07 12:19:40;;;;;;;2.53;0.73;;;14.00;99.90;;;;;;5026577;28;20496;-71
2022/02/07 12:22:18;;;;;;;1.08;0.32;;;14.10;99.90;;;;;;5028123;28;20025;-79
2022/02/07 12:24:54;;;;;;;1.90;0.30;;;13.70;99.90;;;;;;5024067;28;20130;-72
2022/02/07 12:27:21;;;;;;;0.68;0.68;;;13.50;99.90;;;;;;5027648;28;20083;-71
2022/02/07 12:29:48;;;;;;;1.30;0.85;;;13.50;99.90;;;;;;5029087;28;20166;-71
2022/02/07 12:32:14;;;;;;;0.20;0.10;;;13.50;99.90;;;;;;5020056;28;20484;-71
2022/02/07 12:34:40;;;;;;;33.28;2.05;;;13.60;99.90;;;;;;5040426;28;20063;-77
2022/02/07 12:37:05;;;;;;;1.75;0.35;;;13.60;99.90;;;;;;5025416;28;20037;-71
2022/02/07 12:39:34;;;;;;;4.57;1.85;;;13.60;99.90;;;;;;5031321;28;20030;-71
2022/02/07 12:41:59;;;;;;;3.20;0.95;;;13.40;99.90;;;;;;5027009;28;20021;-78
2022/02/07 12:44:27;;;;;;;0.00;0.00;;;13.50;99.90;;;;;;5025434;28;20044;-71
2022/02/07 12:46:55;;;;;;;3.05;0.75;;;13.40;99.90;;;;;;5018431;28;20048;-77
2022/02/07 12:49:24;;;;;;;0.10;0.10;;;13.40;99.90;;;;;;5030119;28;20017;-72
2022/02/07 12:51:50;;;;;;;0.28;0.13;;;13.60;99.90;;;;;;5044251;28;20028;-75
2022/02/07 12:54:21;;;;;;;0.10;0.10;;;13.80;99.90;;;;;;5045910;28;20047;-72
2022/02/07 12:56:48;;;;;;;1.25;1.15;;;14.10;99.90;;;;;;5034192;28;20024;-78
2022/02/07 12:59:14;;;;;;;0.10;0.10;;;14.20;99.90;;;;;;5041289;28;20373;-77
2022/02/07 13:01:42;;;;;;;0.13;0.13;;;14.20;99.90;;;;;;5031913;28;20036;-77
2022/02/07 13:04:16;;;;;;;0.00;0.00;;;13.90;99.90;;;;;;5030542;28;20388;-71
2022/02/07 13:06:48;;;;;;;0.00;0.00;;;13.70;99.90;;;;;;5031945;28;20393;-72
2022/02/07 13:09:29;;;;;;;0.20;0.20;;;13.70;99.90;;;;;;5031929;28;20029;-77
2022/02/07 13:14:41;;;;;;;3.85;0.80;;;13.50;99.90;;;;;;5020412;28;20044;-76
2022/02/07 13:17:07;;;;;;;0.00;0.00;;;13.40;99.90;;;;;;5038929;28;20025;-72
2022/02/07 13:19:39;;;;;;;0.25;0.03;;;13.50;99.90;;;;;;5032324;28;20106;-72
2022/02/07 13:22:06;;;;;;;0.65;0.52;;;13.60;99.90;;;;;;5033988;28;20033;-72
2022/02/07 13:24:33;;;;;;;0.05;0.05;;;13.70;99.90;;;;;;5031469;28;20026;-77
2022/02/07 13:27:01;;;;;;;0.32;0.32;;;13.60;99.90;;;;;;5032798;28;20144;-77
2022/02/07 13:29:41;;;;;;;0.20;0.20;;;13.70;99.90;;;;;;5041755;28;20017;-71
2022/02/07 13:32:07;;;;;;;0.00;0.00;;;14.00;99.90;;;;;;5039302;28;20021;-76
2022/02/07 13:34:35;;;;;;;0.22;0.22;;;13.90;99.90;;;;;;5038864;28;20032;-76
2022/02/07 13:37:24;;;;;;;0.40;0.40;;;14.10;99.90;;;;;;5037804;28;20013;-73
2022/02/07 13:40:02;;;;;;;0.22;0.10;;;14.30;99.90;;;;;;5031761;28;20098;-73
2022/02/07 13:42:40;;;;;;;0.00;0.00;;;14.50;99.90;;;;;;5031192;28;20029;-78
2022/02/07 13:45:10;;;;;;;0.80;0.43;;;14.40;99.90;;;;;;5028929;28;20037;-77
2022/02/07 13:47:38;;;;;;;0.00;0.00;;;14.00;99.90;;;;;;5033367;28;20088;-78
2022/02/07 13:50:08;;;;;;;1.75;0.93;;;14.00;99.90;;;;;;5032180;28;20451;-77
2022/02/07 13:52:36;;;;;;;1.75;0.10;;;13.90;99.90;;;;;;5031376;28;20018;-78
2022/02/07 13:55:26;;;;;;;1.92;0.75;;;14.10;99.90;;;;;;5029393;28;20480;-77
2022/02/07 13:57:59;;;;;;;2.38;0.95;;;14.20;99.90;;;;;;5033082;28;20419;-72
2022/02/07 14:00:31;;;;;;;0.82;0.30;;;14.30;99.90;;;;;;5031438;28;20060;-72
2022/02/07 14:03:10;;;;;;;0.30;0.20;;;14.40;99.90;;;;;;5032802;28;20108;-73
2022/02/07 14:05:39;;;;;;;0.90;0.10;;;14.30;99.90;;;;;;5032447;28;20404;-77
2022/02/07 14:08:08;;;;;;;0.13;0.13;;;14.20;99.90;;;;;;5032305;28;20022;-72
2022/02/07 14:10:37;;;;;;;0.00;0.00;;;14.20;99.90;;;;;;5031057;28;20033;-72
2022/02/07 14:13:08;;;;;;;8.75;0.22;;;14.40;99.90;;;;;;5031328;28;20437;-72
2022/02/07 14:15:35;;;;;;;1.48;0.95;;;14.60;99.90;;;;;;5032700;28;20029;-72
2022/02/07 14:18:07;;;;;;;0.10;0.10;;;14.70;99.90;;;;;;5031823;28;20076;-78
2022/02/07 14:20:35;;;;;;;2.33;0.93;;;14.80;99.90;;;;;;5032502;28;20043;-78
2022/02/07 14:23:01;;;;;;;0.25;0.25;;;14.80;99.90;;;;;;5032189;28;20268;-72
2022/02/07 14:25:29;;;;;;;0.00;0.00;;;14.90;99.90;;;;;;5031893;28;20053;-72
2022/02/07 14:27:59;;;;;;;0.30;0.30;;;14.60;99.90;;;;;;5025274;28;20021;-77
2022/02/07 14:30:26;;;;;;;0.00;0.00;;;14.10;99.90;;;;;;5032045;28;20113;-72
2022/02/07 14:32:55;;;;;;;0.00;0.00;;;13.80;99.90;;;;;;5032304;28;20057;-76
2022/02/07 14:35:21;;;;;;;1.95;0.35;;;13.40;99.90;;;;;;5030813;28;20489;-72
2022/02/07 14:37:47;;;;;;;0.10;0.10;;;13.10;99.90;;;;;;5024783;28;20072;-72
2022/02/07 14:40:13;;;;;;;0.38;0.35;;;13.00;99.90;;;;;;5012056;28;20026;-72
2022/02/07 14:42:38;;;;;;;0.13;0.13;;;13.10;99.90;;;;;;5028645;28;20029;-76
2022/02/07 14:47:55;;;;;;;0.10;0.10;;;13.30;99.90;;;;;;5037675;28;20045;-71
2022/02/07 14:50:24;;;;;;;0.00;0.00;;;13.50;99.90;;;;;;5031372;28;20025;-73
2022/02/07 14:52:53;;;;;;;0.47;0.43;;;13.70;99.90;;;;;;5031169;28;20396;-72
2022/02/07 14:55:20;;;;;;;0.00;0.00;;;13.60;99.90;;;;;;5030993;28;20025;-72
2022/02/07 14:57:46;;;;;;;0.08;0.08;;;13.60;99.90;;;;;;5030464;28;20116;-77
2022/02/07 15:00:23;;;;;;;0.10;0.10;;;13.50;99.90;;;;;;5030418;28;20108;-72
2022/02/07 15:02:48;;;;;;;3.92;2.03;;;13.50;99.90;;;;;;5030853;28;20035;-78
2022/02/07 15:05:14;;;;;;;0.13;0.10;;;13.50;99.90;;;;;;5031506;28;20404;-73
2022/02/07 15:07:41;;;;;;;0.85;0.08;;;13.50;99.90;;;;;;5030654;28;20033;-71
2022/02/07 15:10:08;;;;;;;0.00;0.00;;;13.30;99.90;;;;;;5031521;28;20025;-80
2022/02/07 15:12:34;;;;;;;0.00;0.00;;;13.20;99.90;;;;;;5031071;28;20048;-81
2022/02/07 15:15:01;;;;;;;4.75;1.55;;;13.20;99.90;;;;;;5029915;28;20022;-75
2022/02/07 15:17:31;;;;;;;6.22;0.40;;;13.10;99.90;;;;;;5025555;28;20041;-75
2022/02/07 15:20:00;;;;;;;0.10;0.10;;;13.00;99.90;;;;;;5028909;28;20083;-75
2022/02/07 15:22:26;;;;;;;1.55;0.32;;;12.80;99.90;;;;;;5029180;28;20025;-73
2022/02/07 15:24:52;;;;;;;1.15;0.93;;;12.80;99.90;;;;;;5030456;28;20046;-73
2022/02/07 15:27:18;;;;;;;0.15;0.15;;;12.80;99.90;;;;;;5029539;28;20029;-75
2022/02/07 15:29:44;;;;;;;0.10;0.10;;;12.80;99.90;;;;;;5030790;28;20024;-73
2022/02/07 15:32:27;;;;;;;0.00;0.00;;;12.70;99.90;;;;;;5037365;28;20085;-79
2022/02/07 15:35:00;;;;;;;0.20;0.20;;;12.60;99.90;;;;;;5035492;28;20030;-78
2022/02/07 15:37:27;;;;;;;4.05;0.80;;;12.50;99.90;;;;;;5024448;28;20029;-73
2022/02/07 15:39:54;;;;;;;0.00;0.00;;;12.50;99.90;;;;;;5032578;28;20013;-77
2022/02/07 15:42:19;;;;;;;0.00;0.00;;;12.50;99.90;;;;;;5032115;28;20034;-80
2022/02/07 15:44:47;;;;;;;0.00;0.00;;;12.40;99.90;;;;;;5031985;28;20034;-73
2022/02/07 15:47:13;;;;;;;0.00;0.00;;;12.30;99.90;;;;;;5031549;28;20025;-73
2022/02/07 15:49:38;;;;;;;0.00;0.00;;;12.20;99.90;;;;;;5031400;28;20028;-72
2022/02/07 15:52:05;;;;;;;0.10;0.10;;;12.20;99.90;;;;;;5032216;28;20033;-80